sensor_id;sensor_type;location;lat;lon;timestamp;P1;durP1;ratioP1;P2;durP2;ratioP2
38609;SDS011;24367;51.640;9.566;2023-05-15T00:01:47;2.63;;;1.80;;
38609;SDS011;24367;51.640;9.566;2023-05-15T00:04:14;2.25;;;1.40;;
38609;SDS011;24367;51.640;9.566;2023-05-15T00:06:40;2.20;;;1.45;;
38609;SDS011;24367;51.640;9.566;2023-05-15T00:09:09;1.75;;;1.33;;
38609;SDS011;24367;51.640;9.566;2023-05-15T00:11:35;3.40;;;1.60;;
38609;SDS011;24367;51.640;9.566;2023-05-15T00:14:02;2.88;;;1.70;;
38609;SDS011;24367;51.640;9.566;2023-05-15T00:16:28;2.08;;;1.40;;
38609;SDS011;24367;51.640;9.566;2023-05-15T00:18:55;3.13;;;1.63;;
38609;SDS011;24367;51.640;9.566;2023-05-15T00:21:21;2.17;;;1.40;;
38609;SDS011;24367;51.640;9.566;2023-05-15T00:23:48;2.60;;;1.77;;
38609;SDS011;24367;51.640;9.566;2023-05-15T00:26:19;2.15;;;1.35;;
38609;SDS011;24367;51.640;9.566;2023-05-15T00:28:47;2.92;;;1.85;;
38609;SDS011;24367;51.640;9.566;2023-05-15T00:31:15;3.95;;;1.60;;
38609;SDS011;24367;51.640;9.566;2023-05-15T00:33:42;2.40;;;1.67;;
38609;SDS011;24367;51.640;9.566;2023-05-15T00:36:08;2.78;;;1.60;;
38609;SDS011;24367;51.640;9.566;2023-05-15T00:38:35;3.45;;;1.67;;
38609;SDS011;24367;51.640;9.566;2023-05-15T00:41:02;2.38;;;1.63;;
38609;SDS011;24367;51.640;9.566;2023-05-15T00:43:31;2.80;;;1.50;;
38609;SDS011;24367;51.640;9.566;2023-05-15T00:45:58;2.83;;;1.60;;
38609;SDS011;24367;51.640;9.566;2023-05-15T00:48:25;2.58;;;1.75;;
38609;SDS011;24367;51.640;9.566;2023-05-15T00:50:53;2.70;;;1.70;;
38609;SDS011;24367;51.640;9.566;2023-05-15T00:53:21;3.97;;;1.77;;
38609;SDS011;24367;51.640;9.566;2023-05-15T00:55:49;3.38;;;1.60;;
38609;SDS011;24367;51.640;9.566;2023-05-15T00:58:16;2.17;;;1.58;;
38609;SDS011;24367;51.640;9.566;2023-05-15T01:00:44;2.30;;;1.50;;
38609;SDS011;24367;51.640;9.566;2023-05-15T01:03:12;2.50;;;1.65;;
38609;SDS011;24367;51.640;9.566;2023-05-15T01:05:38;2.95;;;1.90;;
38609;SDS011;24367;51.640;9.566;2023-05-15T01:08:08;2.25;;;1.58;;
38609;SDS011;24367;51.640;9.566;2023-05-15T01:10:38;2.75;;;1.67;;
38609;SDS011;24367;51.640;9.566;2023-05-15T01:13:04;2.00;;;1.40;;
38609;SDS011;24367;51.640;9.566;2023-05-15T01:15:32;2.45;;;1.80;;
38609;SDS011;24367;51.640;9.566;2023-05-15T01:18:00;1.90;;;1.42;;
38609;SDS011;24367;51.640;9.566;2023-05-15T01:20:27;3.13;;;2.20;;
38609;SDS011;24367;51.640;9.566;2023-05-15T01:23:03;2.00;;;1.55;;
38609;SDS011;24367;51.640;9.566;2023-05-15T01:25:45;2.53;;;1.60;;
38609;SDS011;24367;51.640;9.566;2023-05-15T01:28:32;2.20;;;1.40;;
38609;SDS011;24367;51.640;9.566;2023-05-15T01:31:05;2.53;;;1.70;;
38609;SDS011;24367;51.640;9.566;2023-05-15T01:33:37;1.98;;;1.48;;
38609;SDS011;24367;51.640;9.566;2023-05-15T01:36:08;2.42;;;1.90;;
38609;SDS011;24367;51.640;9.566;2023-05-15T01:38:39;2.83;;;1.80;;
38609;SDS011;24367;51.640;9.566;2023-05-15T01:41:09;2.28;;;1.70;;
38609;SDS011;24367;51.640;9.566;2023-05-15T01:43:38;2.45;;;1.70;;
38609;SDS011;24367;51.640;9.566;2023-05-15T01:46:07;2.20;;;1.70;;
38609;SDS011;24367;51.640;9.566;2023-05-15T01:48:34;2.13;;;1.70;;
38609;SDS011;24367;51.640;9.566;2023-05-15T01:51:02;2.55;;;1.67;;
38609;SDS011;24367;51.640;9.566;2023-05-15T01:53:30;3.95;;;2.00;;
38609;SDS011;24367;51.640;9.566;2023-05-15T01:55:57;2.63;;;1.73;;
38609;SDS011;24367;51.640;9.566;2023-05-15T01:58:25;2.60;;;1.75;;
38609;SDS011;24367;51.640;9.566;2023-05-15T02:00:53;2.63;;;1.70;;
38609;SDS011;24367;51.640;9.566;2023-05-15T02:03:20;2.50;;;1.60;;
38609;SDS011;24367;51.640;9.566;2023-05-15T02:05:46;2.15;;;1.48;;
38609;SDS011;24367;51.640;9.566;2023-05-15T02:08:13;2.40;;;1.70;;
38609;SDS011;24367;51.640;9.566;2023-05-15T02:10:41;2.83;;;1.83;;
38609;SDS011;24367;51.640;9.566;2023-05-15T02:13:08;2.33;;;1.63;;
38609;SDS011;24367;51.640;9.566;2023-05-15T02:15:35;3.90;;;1.92;;
38609;SDS011;24367;51.640;9.566;2023-05-15T02:18:04;2.03;;;1.70;;
38609;SDS011;24367;51.640;9.566;2023-05-15T02:20:31;2.00;;;1.63;;
38609;SDS011;24367;51.640;9.566;2023-05-15T02:22:57;2.20;;;1.65;;
38609;SDS011;24367;51.640;9.566;2023-05-15T02:25:25;2.30;;;1.70;;
38609;SDS011;24367;51.640;9.566;2023-05-15T02:27:59;2.38;;;1.58;;
38609;SDS011;24367;51.640;9.566;2023-05-15T02:30:27;2.53;;;1.90;;
38609;SDS011;24367;51.640;9.566;2023-05-15T02:33:02;2.53;;;1.80;;
38609;SDS011;24367;51.640;9.566;2023-05-15T02:35:36;3.15;;;2.10;;
38609;SDS011;24367;51.640;9.566;2023-05-15T02:38:08;2.40;;;1.83;;
38609;SDS011;24367;51.640;9.566;2023-05-15T02:40:37;2.63;;;1.92;;
38609;SDS011;24367;51.640;9.566;2023-05-15T02:43:04;2.88;;;2.17;;
38609;SDS011;24367;51.640;9.566;2023-05-15T02:45:32;2.42;;;1.80;;
38609;SDS011;24367;51.640;9.566;2023-05-15T02:47:59;2.15;;;1.80;;
38609;SDS011;24367;51.640;9.566;2023-05-15T02:50:28;2.40;;;1.73;;
38609;SDS011;24367;51.640;9.566;2023-05-15T02:53:00;2.35;;;1.90;;
38609;SDS011;24367;51.640;9.566;2023-05-15T02:55:27;2.60;;;1.90;;
38609;SDS011;24367;51.640;9.566;2023-05-15T02:57:53;2.75;;;2.05;;
38609;SDS011;24367;51.640;9.566;2023-05-15T03:00:20;2.95;;;1.90;;
38609;SDS011;24367;51.640;9.566;2023-05-15T03:02:47;3.42;;;1.98;;
38609;SDS011;24367;51.640;9.566;2023-05-15T03:05:13;3.10;;;1.92;;
38609;SDS011;24367;51.640;9.566;2023-05-15T03:07:41;2.70;;;1.90;;
38609;SDS011;24367;51.640;9.566;2023-05-15T03:10:08;4.43;;;1.75;;
38609;SDS011;24367;51.640;9.566;2023-05-15T03:12:35;4.15;;;2.20;;
38609;SDS011;24367;51.640;9.566;2023-05-15T03:15:01;2.92;;;2.00;;
38609;SDS011;24367;51.640;9.566;2023-05-15T03:17:28;3.42;;;1.80;;
38609;SDS011;24367;51.640;9.566;2023-05-15T03:19:55;2.30;;;1.90;;
38609;SDS011;24367;51.640;9.566;2023-05-15T03:22:21;2.15;;;1.80;;
38609;SDS011;24367;51.640;9.566;2023-05-15T03:24:49;2.30;;;1.83;;
38609;SDS011;24367;51.640;9.566;2023-05-15T03:27:16;3.65;;;1.92;;
38609;SDS011;24367;51.640;9.566;2023-05-15T03:29:42;2.83;;;2.00;;
38609;SDS011;24367;51.640;9.566;2023-05-15T03:32:09;2.65;;;2.10;;
38609;SDS011;24367;51.640;9.566;2023-05-15T03:34:36;1.92;;;1.58;;
38609;SDS011;24367;51.640;9.566;2023-05-15T03:37:02;3.17;;;2.30;;
38609;SDS011;24367;51.640;9.566;2023-05-15T03:39:29;2.55;;;1.60;;
38609;SDS011;24367;51.640;9.566;2023-05-15T03:41:57;2.55;;;2.00;;
38609;SDS011;24367;51.640;9.566;2023-05-15T03:44:23;2.70;;;1.92;;
38609;SDS011;24367;51.640;9.566;2023-05-15T03:46:50;2.63;;;1.73;;
38609;SDS011;24367;51.640;9.566;2023-05-15T03:49:16;2.97;;;2.30;;
38609;SDS011;24367;51.640;9.566;2023-05-15T03:51:43;2.47;;;1.63;;
38609;SDS011;24367;51.640;9.566;2023-05-15T03:54:11;2.78;;;1.90;;
38609;SDS011;24367;51.640;9.566;2023-05-15T03:56:38;2.40;;;1.80;;
38609;SDS011;24367;51.640;9.566;2023-05-15T03:59:05;3.00;;;2.20;;
38609;SDS011;24367;51.640;9.566;2023-05-15T04:01:32;2.58;;;1.88;;
38609;SDS011;24367;51.640;9.566;2023-05-15T04:03:58;2.30;;;1.83;;
38609;SDS011;24367;51.640;9.566;2023-05-15T04:06:25;2.72;;;1.98;;
38609;SDS011;24367;51.640;9.566;2023-05-15T04:08:51;2.33;;;1.80;;
38609;SDS011;24367;51.640;9.566;2023-05-15T04:11:18;2.90;;;2.10;;
38609;SDS011;24367;51.640;9.566;2023-05-15T04:13:45;2.00;;;1.73;;
38609;SDS011;24367;51.640;9.566;2023-05-15T04:16:13;2.50;;;1.80;;
38609;SDS011;24367;51.640;9.566;2023-05-15T04:18:40;2.55;;;2.00;;
38609;SDS011;24367;51.640;9.566;2023-05-15T04:21:06;2.53;;;1.88;;
38609;SDS011;24367;51.640;9.566;2023-05-15T04:23:33;2.85;;;2.30;;
38609;SDS011;24367;51.640;9.566;2023-05-15T04:25:59;2.90;;;1.92;;
38609;SDS011;24367;51.640;9.566;2023-05-15T04:28:26;3.05;;;2.10;;
38609;SDS011;24367;51.640;9.566;2023-05-15T04:30:53;2.42;;;2.00;;
38609;SDS011;24367;51.640;9.566;2023-05-15T04:33:20;2.80;;;1.80;;
38609;SDS011;24367;51.640;9.566;2023-05-15T04:35:47;2.10;;;1.67;;
38609;SDS011;24367;51.640;9.566;2023-05-15T04:38:13;2.22;;;1.73;;
38609;SDS011;24367;51.640;9.566;2023-05-15T04:40:40;2.53;;;1.92;;
38609;SDS011;24367;51.640;9.566;2023-05-15T04:43:07;2.72;;;2.00;;
38609;SDS011;24367;51.640;9.566;2023-05-15T04:45:33;2.17;;;1.77;;
38609;SDS011;24367;51.640;9.566;2023-05-15T04:47:59;2.70;;;2.10;;
38609;SDS011;24367;51.640;9.566;2023-05-15T04:50:28;2.47;;;2.00;;
38609;SDS011;24367;51.640;9.566;2023-05-15T04:52:54;2.35;;;1.92;;
38609;SDS011;24367;51.640;9.566;2023-05-15T04:55:21;2.35;;;1.85;;
38609;SDS011;24367;51.640;9.566;2023-05-15T04:57:48;2.55;;;1.98;;
38609;SDS011;24367;51.640;9.566;2023-05-15T05:00:15;2.50;;;2.00;;
38609;SDS011;24367;51.640;9.566;2023-05-15T05:02:42;4.75;;;1.88;;
38609;SDS011;24367;51.640;9.566;2023-05-15T05:05:08;3.25;;;2.08;;
38609;SDS011;24367;51.640;9.566;2023-05-15T05:07:36;3.65;;;2.03;;
38609;SDS011;24367;51.640;9.566;2023-05-15T05:10:03;5.90;;;2.10;;
38609;SDS011;24367;51.640;9.566;2023-05-15T05:12:30;2.70;;;2.03;;
38609;SDS011;24367;51.640;9.566;2023-05-15T05:14:56;3.22;;;2.00;;
38609;SDS011;24367;51.640;9.566;2023-05-15T05:17:23;2.58;;;1.83;;
38609;SDS011;24367;51.640;9.566;2023-05-15T05:19:49;3.20;;;2.00;;
38609;SDS011;24367;51.640;9.566;2023-05-15T05:22:16;2.90;;;1.98;;
38609;SDS011;24367;51.640;9.566;2023-05-15T05:24:44;2.35;;;1.83;;
38609;SDS011;24367;51.640;9.566;2023-05-15T05:27:10;2.50;;;1.90;;
38609;SDS011;24367;51.640;9.566;2023-05-15T05:29:37;2.20;;;1.73;;
38609;SDS011;24367;51.640;9.566;2023-05-15T05:32:04;3.55;;;1.98;;
38609;SDS011;24367;51.640;9.566;2023-05-15T05:34:31;2.60;;;1.65;;
38609;SDS011;24367;51.640;9.566;2023-05-15T05:36:57;2.33;;;1.77;;
38609;SDS011;24367;51.640;9.566;2023-05-15T05:39:23;2.60;;;1.90;;
38609;SDS011;24367;51.640;9.566;2023-05-15T05:41:51;4.80;;;2.00;;
38609;SDS011;24367;51.640;9.566;2023-05-15T05:44:18;2.92;;;1.95;;
38609;SDS011;24367;51.640;9.566;2023-05-15T05:46:44;3.60;;;1.80;;
38609;SDS011;24367;51.640;9.566;2023-05-15T05:49:11;2.63;;;1.92;;
38609;SDS011;24367;51.640;9.566;2023-05-15T05:51:37;3.28;;;2.08;;
38609;SDS011;24367;51.640;9.566;2023-05-15T05:54:04;2.60;;;1.90;;
38609;SDS011;24367;51.640;9.566;2023-05-15T05:56:30;3.28;;;2.08;;
38609;SDS011;24367;51.640;9.566;2023-05-15T05:58:58;6.75;;;2.20;;
38609;SDS011;24367;51.640;9.566;2023-05-15T06:01:25;3.22;;;1.80;;
38609;SDS011;24367;51.640;9.566;2023-05-15T06:03:52;3.10;;;1.80;;
38609;SDS011;24367;51.640;9.566;2023-05-15T06:06:19;3.67;;;1.70;;
38609;SDS011;24367;51.640;9.566;2023-05-15T06:08:46;4.85;;;1.90;;
38609;SDS011;24367;51.640;9.566;2023-05-15T06:11:12;2.47;;;1.80;;
38609;SDS011;24367;51.640;9.566;2023-05-15T06:13:39;3.45;;;1.95;;
38609;SDS011;24367;51.640;9.566;2023-05-15T06:16:07;4.10;;;2.08;;
38609;SDS011;24367;51.640;9.566;2023-05-15T06:18:33;4.30;;;1.73;;
38609;SDS011;24367;51.640;9.566;2023-05-15T06:20:59;2.75;;;1.75;;
38609;SDS011;24367;51.640;9.566;2023-05-15T06:23:26;4.07;;;2.22;;
38609;SDS011;24367;51.640;9.566;2023-05-15T06:25:52;3.38;;;1.80;;
38609;SDS011;24367;51.640;9.566;2023-05-15T06:28:19;2.75;;;2.00;;
38609;SDS011;24367;51.640;9.566;2023-05-15T06:30:45;5.63;;;2.10;;
38609;SDS011;24367;51.640;9.566;2023-05-15T06:33:13;3.22;;;2.00;;
38609;SDS011;24367;51.640;9.566;2023-05-15T06:35:40;3.22;;;1.70;;
38609;SDS011;24367;51.640;9.566;2023-05-15T06:38:06;3.83;;;1.65;;
38609;SDS011;24367;51.640;9.566;2023-05-15T06:40:33;3.30;;;2.00;;
38609;SDS011;24367;51.640;9.566;2023-05-15T06:42:59;4.35;;;2.30;;
38609;SDS011;24367;51.640;9.566;2023-05-15T06:45:25;3.28;;;1.70;;
38609;SDS011;24367;51.640;9.566;2023-05-15T06:47:52;2.30;;;1.70;;
38609;SDS011;24367;51.640;9.566;2023-05-15T06:50:20;3.58;;;1.52;;
38609;SDS011;24367;51.640;9.566;2023-05-15T06:52:46;2.95;;;1.98;;
38609;SDS011;24367;51.640;9.566;2023-05-15T06:55:13;2.78;;;1.80;;
38609;SDS011;24367;51.640;9.566;2023-05-15T06:57:39;3.45;;;1.85;;
38609;SDS011;24367;51.640;9.566;2023-05-15T07:00:06;2.30;;;1.75;;
38609;SDS011;24367;51.640;9.566;2023-05-15T07:02:34;2.50;;;1.70;;
38609;SDS011;24367;51.640;9.566;2023-05-15T07:05:00;3.00;;;2.17;;
38609;SDS011;24367;51.640;9.566;2023-05-15T07:07:28;2.50;;;1.90;;
38609;SDS011;24367;51.640;9.566;2023-05-15T07:09:54;3.65;;;1.90;;
38609;SDS011;24367;51.640;9.566;2023-05-15T07:12:21;5.57;;;1.83;;
38609;SDS011;24367;51.640;9.566;2023-05-15T07:14:47;3.13;;;1.88;;
38609;SDS011;24367;51.640;9.566;2023-05-15T07:17:14;3.45;;;1.92;;
38609;SDS011;24367;51.640;9.566;2023-05-15T07:19:40;2.50;;;2.15;;
38609;SDS011;24367;51.640;9.566;2023-05-15T07:22:06;3.85;;;1.90;;
38609;SDS011;24367;51.640;9.566;2023-05-15T07:24:34;3.28;;;1.83;;
38609;SDS011;24367;51.640;9.566;2023-05-15T07:27:02;3.28;;;1.98;;
38609;SDS011;24367;51.640;9.566;2023-05-15T07:29:28;3.45;;;1.73;;
38609;SDS011;24367;51.640;9.566;2023-05-15T07:31:55;2.67;;;1.70;;
38609;SDS011;24367;51.640;9.566;2023-05-15T07:34:22;3.10;;;1.83;;
38609;SDS011;24367;51.640;9.566;2023-05-15T07:36:48;2.85;;;1.65;;
38609;SDS011;24367;51.640;9.566;2023-05-15T07:39:15;2.25;;;1.75;;
38609;SDS011;24367;51.640;9.566;2023-05-15T07:41:42;2.70;;;2.00;;
38609;SDS011;24367;51.640;9.566;2023-05-15T07:44:10;2.83;;;1.98;;
38609;SDS011;24367;51.640;9.566;2023-05-15T07:46:37;2.78;;;2.08;;
38609;SDS011;24367;51.640;9.566;2023-05-15T07:49:03;2.88;;;1.83;;
38609;SDS011;24367;51.640;9.566;2023-05-15T07:51:30;2.95;;;2.00;;
38609;SDS011;24367;51.640;9.566;2023-05-15T07:53:56;2.97;;;1.70;;
38609;SDS011;24367;51.640;9.566;2023-05-15T07:56:22;2.20;;;1.50;;
38609;SDS011;24367;51.640;9.566;2023-05-15T07:58:50;3.60;;;1.85;;
38609;SDS011;24367;51.640;9.566;2023-05-15T08:01:18;2.30;;;1.85;;
38609;SDS011;24367;51.640;9.566;2023-05-15T08:03:44;5.65;;;2.05;;
38609;SDS011;24367;51.640;9.566;2023-05-15T08:06:10;4.50;;;1.85;;
38609;SDS011;24367;51.640;9.566;2023-05-15T08:08:37;2.63;;;1.90;;
38609;SDS011;24367;51.640;9.566;2023-05-15T08:11:03;2.40;;;1.73;;
38609;SDS011;24367;51.640;9.566;2023-05-15T08:13:30;2.33;;;1.80;;
38609;SDS011;24367;51.640;9.566;2023-05-15T08:15:58;2.45;;;1.65;;
38609;SDS011;24367;51.640;9.566;2023-05-15T08:18:24;2.53;;;1.92;;
38609;SDS011;24367;51.640;9.566;2023-05-15T08:20:51;3.70;;;1.70;;
38609;SDS011;24367;51.640;9.566;2023-05-15T08:23:17;2.30;;;1.80;;
38609;SDS011;24367;51.640;9.566;2023-05-15T08:25:43;2.63;;;2.08;;
38609;SDS011;24367;51.640;9.566;2023-05-15T08:28:10;2.40;;;1.73;;
38609;SDS011;24367;51.640;9.566;2023-05-15T08:30:36;2.97;;;1.90;;
38609;SDS011;24367;51.640;9.566;2023-05-15T08:33:04;3.63;;;1.90;;
38609;SDS011;24367;51.640;9.566;2023-05-15T08:35:30;3.28;;;1.90;;
38609;SDS011;24367;51.640;9.566;2023-05-15T08:37:57;2.10;;;1.58;;
38609;SDS011;24367;51.640;9.566;2023-05-15T08:40:24;4.80;;;1.90;;
38609;SDS011;24367;51.640;9.566;2023-05-15T08:42:51;3.92;;;1.95;;
38609;SDS011;24367;51.640;9.566;2023-05-15T08:45:19;2.35;;;1.90;;
38609;SDS011;24367;51.640;9.566;2023-05-15T08:47:46;3.38;;;1.73;;
38609;SDS011;24367;51.640;9.566;2023-05-15T08:50:14;3.33;;;2.10;;
38609;SDS011;24367;51.640;9.566;2023-05-15T08:52:42;2.25;;;1.85;;
38609;SDS011;24367;51.640;9.566;2023-05-15T08:55:09;2.40;;;1.83;;
38609;SDS011;24367;51.640;9.566;2023-05-15T08:57:36;2.30;;;1.73;;
38609;SDS011;24367;51.640;9.566;2023-05-15T09:00:03;2.25;;;1.70;;
38609;SDS011;24367;51.640;9.566;2023-05-15T09:02:33;2.72;;;1.80;;
38609;SDS011;24367;51.640;9.566;2023-05-15T09:05:00;2.55;;;1.77;;
38609;SDS011;24367;51.640;9.566;2023-05-15T09:07:29;2.13;;;1.52;;
38609;SDS011;24367;51.640;9.566;2023-05-15T09:09:55;2.33;;;1.73;;
38609;SDS011;24367;51.640;9.566;2023-05-15T09:12:23;1.95;;;1.50;;
38609;SDS011;24367;51.640;9.566;2023-05-15T09:14:50;2.08;;;1.55;;
38609;SDS011;24367;51.640;9.566;2023-05-15T09:17:16;3.17;;;1.80;;
38609;SDS011;24367;51.640;9.566;2023-05-15T09:19:43;3.88;;;1.88;;
38609;SDS011;24367;51.640;9.566;2023-05-15T09:22:13;2.47;;;2.00;;
38609;SDS011;24367;51.640;9.566;2023-05-15T09:24:43;2.20;;;1.60;;
38609;SDS011;24367;51.640;9.566;2023-05-15T09:27:12;2.47;;;1.90;;
38609;SDS011;24367;51.640;9.566;2023-05-15T09:29:38;2.22;;;1.52;;
38609;SDS011;24367;51.640;9.566;2023-05-15T09:32:06;1.98;;;1.38;;
38609;SDS011;24367;51.640;9.566;2023-05-15T09:34:34;2.63;;;1.95;;
38609;SDS011;24367;51.640;9.566;2023-05-15T09:37:02;2.10;;;1.60;;
38609;SDS011;24367;51.640;9.566;2023-05-15T09:39:30;2.22;;;1.80;;
38609;SDS011;24367;51.640;9.566;2023-05-15T09:42:05;2.38;;;1.85;;
38609;SDS011;24367;51.640;9.566;2023-05-15T09:44:32;2.50;;;1.77;;
38609;SDS011;24367;51.640;9.566;2023-05-15T09:46:59;2.58;;;1.58;;
38609;SDS011;24367;51.640;9.566;2023-05-15T09:49:26;2.13;;;1.67;;
38609;SDS011;24367;51.640;9.566;2023-05-15T09:51:53;2.40;;;1.77;;
38609;SDS011;24367;51.640;9.566;2023-05-15T09:54:19;2.70;;;1.77;;
38609;SDS011;24367;51.640;9.566;2023-05-15T09:56:48;1.88;;;1.42;;
38609;SDS011;24367;51.640;9.566;2023-05-15T09:59:17;2.45;;;1.83;;
38609;SDS011;24367;51.640;9.566;2023-05-15T10:01:46;3.00;;;1.60;;
38609;SDS011;24367;51.640;9.566;2023-05-15T10:04:13;2.30;;;1.60;;
38609;SDS011;24367;51.640;9.566;2023-05-15T10:06:40;2.13;;;1.65;;
38609;SDS011;24367;51.640;9.566;2023-05-15T10:09:08;3.20;;;1.70;;
38609;SDS011;24367;51.640;9.566;2023-05-15T10:11:35;3.15;;;1.60;;
38609;SDS011;24367;51.640;9.566;2023-05-15T10:14:03;2.78;;;1.85;;
38609;SDS011;24367;51.640;9.566;2023-05-15T10:16:32;2.20;;;1.60;;
38609;SDS011;24367;51.640;9.566;2023-05-15T10:18:59;2.30;;;1.55;;
38609;SDS011;24367;51.640;9.566;2023-05-15T10:21:26;2.08;;;1.50;;
38609;SDS011;24367;51.640;9.566;2023-05-15T10:23:53;2.30;;;1.60;;
38609;SDS011;24367;51.640;9.566;2023-05-15T10:26:22;2.97;;;1.45;;
38609;SDS011;24367;51.640;9.566;2023-05-15T10:28:49;2.10;;;1.50;;
38609;SDS011;24367;51.640;9.566;2023-05-15T10:31:16;2.97;;;1.88;;
38609;SDS011;24367;51.640;9.566;2023-05-15T10:33:44;5.43;;;3.28;;
38609;SDS011;24367;51.640;9.566;2023-05-15T10:36:12;3.95;;;3.25;;
38609;SDS011;24367;51.640;9.566;2023-05-15T10:38:39;4.60;;;3.45;;
38609;SDS011;24367;51.640;9.566;2023-05-15T10:41:06;5.63;;;3.60;;
38609;SDS011;24367;51.640;9.566;2023-05-15T10:43:33;4.75;;;3.58;;
38609;SDS011;24367;51.640;9.566;2023-05-15T10:46:00;5.93;;;3.25;;
38609;SDS011;24367;51.640;9.566;2023-05-15T10:48:28;4.65;;;3.08;;
38609;SDS011;24367;51.640;9.566;2023-05-15T10:50:56;4.50;;;3.00;;
38609;SDS011;24367;51.640;9.566;2023-05-15T10:53:24;3.85;;;2.63;;
38609;SDS011;24367;51.640;9.566;2023-05-15T10:55:51;3.85;;;2.90;;
38609;SDS011;24367;51.640;9.566;2023-05-15T10:58:20;4.88;;;3.10;;
38609;SDS011;24367;51.640;9.566;2023-05-15T11:00:47;4.05;;;3.25;;
38609;SDS011;24367;51.640;9.566;2023-05-15T11:03:14;5.10;;;2.90;;
38609;SDS011;24367;51.640;9.566;2023-05-15T11:08:34;4.65;;;3.13;;
38609;SDS011;24367;51.640;9.566;2023-05-15T11:11:01;5.03;;;2.88;;
38609;SDS011;24367;51.640;9.566;2023-05-15T11:19:22;4.03;;;2.55;;
38609;SDS011;24367;51.640;9.566;2023-05-15T11:21:54;4.72;;;2.90;;
38609;SDS011;24367;51.640;9.566;2023-05-15T11:24:25;3.90;;;2.90;;
38609;SDS011;24367;51.640;9.566;2023-05-15T11:26:56;5.50;;;3.28;;
38609;SDS011;24367;51.640;9.566;2023-05-15T11:29:24;4.40;;;3.00;;
38609;SDS011;24367;51.640;9.566;2023-05-15T11:31:50;3.65;;;2.72;;
38609;SDS011;24367;51.640;9.566;2023-05-15T11:34:27;3.55;;;2.90;;
38609;SDS011;24367;51.640;9.566;2023-05-15T11:36:56;4.47;;;2.80;;
38609;SDS011;24367;51.640;9.566;2023-05-15T11:39:23;4.53;;;2.65;;
38609;SDS011;24367;51.640;9.566;2023-05-15T11:41:50;4.03;;;2.60;;
38609;SDS011;24367;51.640;9.566;2023-05-15T11:44:20;4.70;;;2.95;;
38609;SDS011;24367;51.640;9.566;2023-05-15T11:46:47;3.42;;;2.60;;
38609;SDS011;24367;51.640;9.566;2023-05-15T11:49:14;4.32;;;3.08;;
38609;SDS011;24367;51.640;9.566;2023-05-15T11:51:41;5.57;;;2.85;;
38609;SDS011;24367;51.640;9.566;2023-05-15T11:54:10;4.78;;;3.00;;
38609;SDS011;24367;51.640;9.566;2023-05-15T11:56:40;6.82;;;2.83;;
38609;SDS011;24367;51.640;9.566;2023-05-15T11:59:08;5.07;;;3.13;;
38609;SDS011;24367;51.640;9.566;2023-05-15T12:01:38;4.53;;;3.53;;
38609;SDS011;24367;51.640;9.566;2023-05-15T12:04:10;6.70;;;2.95;;
38609;SDS011;24367;51.640;9.566;2023-05-15T12:06:37;3.22;;;2.50;;
38609;SDS011;24367;51.640;9.566;2023-05-15T12:09:04;3.47;;;2.80;;
38609;SDS011;24367;51.640;9.566;2023-05-15T12:11:33;9.23;;;3.15;;
38609;SDS011;24367;51.640;9.566;2023-05-15T12:13:59;6.18;;;3.28;;
38609;SDS011;24367;51.640;9.566;2023-05-15T12:16:26;7.30;;;3.17;;
38609;SDS011;24367;51.640;9.566;2023-05-15T12:18:53;4.00;;;3.08;;
38609;SDS011;24367;51.640;9.566;2023-05-15T12:21:21;5.35;;;3.10;;
38609;SDS011;24367;51.640;9.566;2023-05-15T12:23:51;5.53;;;2.88;;
38609;SDS011;24367;51.640;9.566;2023-05-15T12:26:17;4.93;;;3.10;;
38609;SDS011;24367;51.640;9.566;2023-05-15T12:28:46;5.60;;;3.28;;
38609;SDS011;24367;51.640;9.566;2023-05-15T12:31:13;7.25;;;3.40;;
38609;SDS011;24367;51.640;9.566;2023-05-15T12:33:41;7.00;;;3.22;;
38609;SDS011;24367;51.640;9.566;2023-05-15T12:36:08;7.30;;;3.58;;
38609;SDS011;24367;51.640;9.566;2023-05-15T12:38:34;6.90;;;3.17;;
38609;SDS011;24367;51.640;9.566;2023-05-15T12:41:01;6.20;;;3.05;;
38609;SDS011;24367;51.640;9.566;2023-05-15T12:43:27;13.23;;;3.10;;
38609;SDS011;24367;51.640;9.566;2023-05-15T12:45:57;5.28;;;3.03;;
38609;SDS011;24367;51.640;9.566;2023-05-15T12:48:28;5.03;;;2.90;;
38609;SDS011;24367;51.640;9.566;2023-05-15T12:50:54;4.68;;;3.03;;
38609;SDS011;24367;51.640;9.566;2023-05-15T12:53:21;5.10;;;3.05;;
38609;SDS011;24367;51.640;9.566;2023-05-15T12:55:47;5.90;;;2.90;;
38609;SDS011;24367;51.640;9.566;2023-05-15T12:58:14;5.10;;;3.00;;
38609;SDS011;24367;51.640;9.566;2023-05-15T13:00:42;8.60;;;2.97;;
38609;SDS011;24367;51.640;9.566;2023-05-15T13:03:11;6.80;;;3.00;;
38609;SDS011;24367;51.640;9.566;2023-05-15T13:05:38;5.28;;;2.78;;
38609;SDS011;24367;51.640;9.566;2023-05-15T13:08:06;4.38;;;3.10;;
38609;SDS011;24367;51.640;9.566;2023-05-15T13:10:33;5.32;;;2.90;;
38609;SDS011;24367;51.640;9.566;2023-05-15T13:13:01;5.95;;;3.00;;
38609;SDS011;24367;51.640;9.566;2023-05-15T13:15:28;4.75;;;2.50;;
38609;SDS011;24367;51.640;9.566;2023-05-15T13:17:59;4.82;;;2.83;;
38609;SDS011;24367;51.640;9.566;2023-05-15T13:20:28;5.85;;;3.33;;
38609;SDS011;24367;51.640;9.566;2023-05-15T13:22:56;5.45;;;2.83;;
38609;SDS011;24367;51.640;9.566;2023-05-15T13:25:23;6.18;;;3.20;;
38609;SDS011;24367;51.640;9.566;2023-05-15T13:27:50;4.05;;;2.60;;
38609;SDS011;24367;51.640;9.566;2023-05-15T13:30:16;4.47;;;2.88;;
38609;SDS011;24367;51.640;9.566;2023-05-15T13:32:43;4.63;;;3.00;;
38609;SDS011;24367;51.640;9.566;2023-05-15T13:35:10;4.50;;;3.00;;
38609;SDS011;24367;51.640;9.566;2023-05-15T13:37:38;5.03;;;2.83;;
38609;SDS011;24367;51.640;9.566;2023-05-15T13:40:06;4.95;;;3.13;;
38609;SDS011;24367;51.640;9.566;2023-05-15T13:42:34;4.47;;;3.05;;
38609;SDS011;24367;51.640;9.566;2023-05-15T13:45:01;4.93;;;3.40;;
38609;SDS011;24367;51.640;9.566;2023-05-15T13:47:28;5.18;;;2.80;;
38609;SDS011;24367;51.640;9.566;2023-05-15T13:49:55;7.03;;;3.30;;
38609;SDS011;24367;51.640;9.566;2023-05-15T13:52:22;7.88;;;3.35;;
38609;SDS011;24367;51.640;9.566;2023-05-15T13:54:49;5.38;;;2.90;;
38609;SDS011;24367;51.640;9.566;2023-05-15T13:57:16;7.35;;;3.08;;
38609;SDS011;24367;51.640;9.566;2023-05-15T13:59:43;3.67;;;2.83;;
38609;SDS011;24367;51.640;9.566;2023-05-15T14:02:10;3.92;;;2.90;;
38609;SDS011;24367;51.640;9.566;2023-05-15T14:04:36;5.15;;;2.72;;
38609;SDS011;24367;51.640;9.566;2023-05-15T14:07:03;3.75;;;2.50;;
38609;SDS011;24367;51.640;9.566;2023-05-15T14:09:29;5.82;;;3.00;;
38609;SDS011;24367;51.640;9.566;2023-05-15T14:11:57;5.00;;;2.85;;
38609;SDS011;24367;51.640;9.566;2023-05-15T14:14:24;3.95;;;2.72;;
38609;SDS011;24367;51.640;9.566;2023-05-15T14:16:50;5.82;;;2.70;;
38609;SDS011;24367;51.640;9.566;2023-05-15T14:19:17;5.90;;;3.30;;
38609;SDS011;24367;51.640;9.566;2023-05-15T14:21:43;3.80;;;2.90;;
38609;SDS011;24367;51.640;9.566;2023-05-15T14:24:10;4.43;;;3.03;;
38609;SDS011;24367;51.640;9.566;2023-05-15T14:26:36;3.95;;;3.25;;
38609;SDS011;24367;51.640;9.566;2023-05-15T14:29:04;4.22;;;3.20;;
38609;SDS011;24367;51.640;9.566;2023-05-15T14:31:30;4.65;;;3.50;;
38609;SDS011;24367;51.640;9.566;2023-05-15T14:33:57;4.30;;;3.33;;
38609;SDS011;24367;51.640;9.566;2023-05-15T14:36:23;3.90;;;3.10;;
38609;SDS011;24367;51.640;9.566;2023-05-15T14:38:50;5.20;;;3.75;;
38609;SDS011;24367;51.640;9.566;2023-05-15T14:41:16;4.60;;;3.47;;
38609;SDS011;24367;51.640;9.566;2023-05-15T14:43:43;4.45;;;3.88;;
38609;SDS011;24367;51.640;9.566;2023-05-15T14:46:10;5.57;;;4.35;;
38609;SDS011;24367;51.640;9.566;2023-05-15T14:48:37;5.65;;;3.90;;
38609;SDS011;24367;51.640;9.566;2023-05-15T14:51:03;5.95;;;3.78;;
38609;SDS011;24367;51.640;9.566;2023-05-15T14:53:30;4.60;;;3.45;;
38609;SDS011;24367;51.640;9.566;2023-05-15T14:55:57;4.30;;;3.83;;
38609;SDS011;24367;51.640;9.566;2023-05-15T14:58:23;6.50;;;4.05;;